DLH370 KCHS-KCLE
Flight info
| Callsign | DLH370 |
|---|---|
| Flight time | N/A |
| Altitude | 38000 |
| Route | MLTRE3 JYMSE DCT BZM DCT JANYS ROLLN2 |
| Aircraft | A20N/M-SDE2E3FGHIRWXY/LB1 |
Departure
| Time | 2026-04-21 21:06 |
|---|---|
| Airport | Charleston International Airport (KCHS) |
Arrival
| Time | N/A |
|---|---|
| Airport | Cleveland Hopkins International Airport (KCLE) |
| Time | Latitude | Longitude | Altitude | Speed | Heading |
|---|---|---|---|---|---|
| 2026-04-21 20:33 | 32.88576 | -80.03837 | 35 ft | 0 kts | 122° |
| 2026-04-21 20:52 | 32.88582 | -80.03847 | 37 ft | 2 kts | 123° |
| 2026-04-21 20:52 | 32.88590 | -80.03863 | 36 ft | 2 kts | 124° |
| 2026-04-21 20:53 | 32.88599 | -80.03879 | 35 ft | 2 kts | 122° |
| 2026-04-21 20:53 | 32.88608 | -80.03896 | 33 ft | 2 kts | 125° |
| 2026-04-21 20:53 | 32.88618 | -80.03912 | 34 ft | 2 kts | 122° |
| 2026-04-21 20:53 | 32.88625 | -80.03930 | 32 ft | 2 kts | 104° |
| 2026-04-21 20:54 | 32.88626 | -80.03949 | 31 ft | 2 kts | 74° |
| 2026-04-21 20:54 | 32.88622 | -80.03962 | 30 ft | 1 kts | 57° |
| 2026-04-21 20:54 | 32.88622 | -80.03963 | 30 ft | 0 kts | 55° |
| 2026-04-21 20:56 | 32.88627 | -80.03957 | 31 ft | 2 kts | 47° |
| 2026-04-21 20:56 | 32.88648 | -80.03932 | 34 ft | 6 kts | 44° |
| 2026-04-21 20:56 | 32.88671 | -80.03905 | 35 ft | 8 kts | 45° |
| 2026-04-21 20:56 | 32.88730 | -80.03814 | 35 ft | 13 kts | 63° |
| 2026-04-21 20:57 | 32.88752 | -80.03736 | 36 ft | 16 kts | 80° |
| 2026-04-21 20:57 | 32.88848 | -80.03627 | 40 ft | 15 kts | 8° |
| 2026-04-21 20:57 | 32.88945 | -80.03647 | 44 ft | 14 kts | 310° |
| 2026-04-21 20:57 | 32.88915 | -80.03745 | 39 ft | 16 kts | 232° |
| 2026-04-21 20:58 | 32.88863 | -80.03824 | 34 ft | 20 kts | 232° |
| 2026-04-21 20:58 | 32.88771 | -80.03961 | 35 ft | 23 kts | 231° |
| 2026-04-21 20:58 | 32.88666 | -80.04119 | 33 ft | 26 kts | 232° |
| 2026-04-21 20:58 | 32.88547 | -80.04296 | 31 ft | 29 kts | 231° |
| 2026-04-21 20:59 | 32.88478 | -80.04442 | 37 ft | 9 kts | 268° |
| 2026-04-21 20:59 | 32.88484 | -80.04528 | 30 ft | 13 kts | 283° |
| 2026-04-21 20:59 | 32.88547 | -80.04619 | 31 ft | 17 kts | 332° |
| 2026-04-21 20:59 | 32.88673 | -80.04690 | 29 ft | 23 kts | 336° |
| 2026-04-21 21:00 | 32.88823 | -80.04660 | 30 ft | 24 kts | 25° |
| 2026-04-21 21:00 | 32.88979 | -80.04575 | 33 ft | 26 kts | 24° |
| 2026-04-21 21:00 | 32.89147 | -80.04487 | 38 ft | 27 kts | 24° |
| 2026-04-21 21:00 | 32.89331 | -80.04463 | 43 ft | 28 kts | 1° |
| 2026-04-21 21:01 | 32.89527 | -80.04454 | 48 ft | 28 kts | 2° |
| 2026-04-21 21:01 | 32.89723 | -80.04453 | 50 ft | 30 kts | 1° |
| 2026-04-21 21:01 | 32.89940 | -80.04448 | 48 ft | 32 kts | 360° |
| 2026-04-21 21:01 | 32.90171 | -80.04443 | 45 ft | 35 kts | 1° |
| 2026-04-21 21:02 | 32.90410 | -80.04448 | 42 ft | 33 kts | 338° |
| 2026-04-21 21:02 | 32.90604 | -80.04584 | 46 ft | 30 kts | 327° |
| 2026-04-21 21:02 | 32.90669 | -80.04636 | 48 ft | 8 kts | 326° |
| 2026-04-21 21:02 | 32.90725 | -80.04680 | 49 ft | 11 kts | 326° |
| 2026-04-21 21:03 | 32.90799 | -80.04737 | 49 ft | 14 kts | 327° |
| 2026-04-21 21:03 | 32.90888 | -80.04805 | 52 ft | 16 kts | 328° |
| 2026-04-21 21:03 | 32.90991 | -80.04883 | 52 ft | 19 kts | 328° |
| 2026-04-21 21:03 | 32.91116 | -80.04974 | 51 ft | 20 kts | 328° |
| 2026-04-21 21:04 | 32.91211 | -80.04969 | 52 ft | 14 kts | 53° |
| 2026-04-21 21:04 | 32.91243 | -80.04901 | 48 ft | 0 kts | 59° |
| 2026-04-21 21:05 | 32.91253 | -80.04883 | 50 ft | 6 kts | 56° |
| 2026-04-21 21:05 | 32.91279 | -80.04812 | 51 ft | 11 kts | 93° |
| 2026-04-21 21:05 | 32.91263 | -80.04780 | 50 ft | 0 kts | 136° |
| 2026-04-21 21:05 | 32.91263 | -80.04779 | 50 ft | 3 kts | 136° |
| 2026-04-21 21:06 | 32.91047 | -80.04610 | 54 ft | 78 kts | 147° |
| 2026-04-21 21:06 | 32.90367 | -80.04097 | 72 ft | 148 kts | 147° |
| 2026-04-21 21:06 | 32.89423 | -80.03420 | 570 ft | 170 kts | 146° |
| 2026-04-21 21:06 | 32.88498 | -80.02521 | 1396 ft | 173 kts | 118° |
| 2026-04-21 21:07 | 32.88236 | -80.01139 | 2133 ft | 180 kts | 81° |
| 2026-04-21 21:07 | 32.88826 | -79.99772 | 2760 ft | 197 kts | 47° |
| 2026-04-21 21:07 | 32.89917 | -79.98626 | 3255 ft | 223 kts | 41° |
| 2026-04-21 21:07 | 32.91114 | -79.97315 | 3910 ft | 244 kts | 46° |
| 2026-04-21 21:08 | 32.92361 | -79.95823 | 4545 ft | 264 kts | 37° |
| 2026-04-21 21:08 | 32.94063 | -79.94866 | 5198 ft | 280 kts | 11° |
| 2026-04-21 21:08 | 32.96025 | -79.94874 | 5832 ft | 296 kts | 347° |
| 2026-04-21 21:08 | 32.97964 | -79.95874 | 6485 ft | 313 kts | 329° |
| 2026-04-21 21:09 | 32.99770 | -79.97426 | 7115 ft | 328 kts | 323° |